^^
Meteo Knjazevac Station Historical Data
Daily Summary for March 25, 2021 Units:  Metric    English   Both
Daily Weekly Monthly Yearly Custom
  High: Low: Average:
Temperature: 16.8 °C 15.9 °C 16.2 °C
Dew Point: 14.9 °C 14 °C 14.4 °C
Humidity: 93% 86% 89%
Wind Speed: 3.2km/h 0km/h 1.3km/h
Wind Gust: 12.9km/h - -
Wind- - SW
Pressure: 1022.6 hPa 1021.9 hPa -
Precipitation: 0 mm    
Historical Graphs
 
 
Tabular Data for March 25, 2021
Time Temperature Dew Point Pressure Wind Wind Speed Wind Gust Humidity Rainfall Rate (Hourly) solar Conditions
00:00 16.8 °C 14.4 °C 1022.2 hPa SSE 1.6 km/h 8 km/h 86% 0 mm 0 W/m2
00:10 16.7 °C 14.3 °C 1022.2 hPa Calm   3.2 km/h 86% 0 mm 0 W/m2
00:20 16.6 °C 14.2 °C 1021.9 hPa South 1.6 km/h 4.8 km/h 86% 0 mm 0 W/m2
00:30 16.5 °C 14.5 °C 1022.2 hPa Calm   4.8 km/h 88% 0 mm 0 W/m2
00:40 16.4 °C 14.4 °C 1021.9 hPa Calm   1.6 km/h 88% 0 mm 0 W/m2
00:50 16.4 °C 14.4 °C 1021.9 hPa Calm     88% 0 mm 0 W/m2
01:00 16.4 °C 14.6 °C 1021.9 hPa Calm   3.2 km/h 89% 0 mm 0 W/m2
01:10 16.3 °C 14.5 °C 1021.9 hPa Calm   1.6 km/h 89% 0 mm 0 W/m2
01:20 16.3 °C 14.5 °C 1022.2 hPa Calm   3.2 km/h 89% 0 mm 0 W/m2
01:30 16.3 °C 14.5 °C 1022.2 hPa Calm   1.6 km/h 89% 0 mm 0 W/m2
01:40 16.2 °C 14.4 °C 1022.2 hPa Calm   3.2 km/h 89% 0 mm 0 W/m2
01:50 16.2 °C 14.6 °C 1022.2 hPa West 1.6 km/h 3.2 km/h 90% 0 mm 0 W/m2
02:00 16.2 °C 14.4 °C 1021.9 hPa ENE 1.6 km/h 4.8 km/h 89% 0 mm 0 W/m2
02:10 16.2 °C 14.3 °C 1021.9 hPa SE 1.6 km/h 6.4 km/h 89% 0 mm 0 W/m2
02:20 16.1 °C 14.3 °C 1021.9 hPa SW 1.6 km/h 4.8 km/h 89% 0 mm 0 W/m2
02:30 16.1 °C 14.4 °C 1021.9 hPa West 3.2 km/h 4.8 km/h 90% 0 mm 0 W/m2
02:40 16.1 °C 14.4 °C 1022.2 hPa NNW 3.2 km/h 6.4 km/h 90% 0 mm 0 W/m2
02:50 16.2 °C 14.4 °C 1022.6 hPa NNE 3.2 km/h 6.4 km/h 89% 0 mm 0 W/m2
03:00 16.2 °C 14.6 °C 1022.2 hPa NE 1.6 km/h 9.7 km/h 90% 0 mm 0 W/m2
03:10 16.1 °C 14.9 °C 1022.6 hPa NE 1.6 km/h 11.3 km/h 93% 0 mm 0 W/m2
03:20 16.1 °C 14.6 °C 1022.2 hPa NW 3.2 km/h 11.3 km/h 91% 0 mm 0 W/m2
03:30 16.1 °C 14.8 °C 1022.2 hPa Calm   11.3 km/h 92% 0 mm 0 W/m2
03:40 16.1 °C 14.6 °C 1022.2 hPa Calm   3.2 km/h 91% 0 mm 0 W/m2
03:50 16 °C 14.6 °C 1022.2 hPa NNW 1.6 km/h 4.8 km/h 91% 0 mm 0 W/m2
04:00 16 °C 14.9 °C 1022.2 hPa NW 1.6 km/h 3.2 km/h 93% 0 mm 0 W/m2
04:10 16 °C 14.6 °C 1022.6 hPa Calm   4.8 km/h 91% 0 mm 0 W/m2
04:20 16.1 °C 14.4 °C 1022.2 hPa North 3.2 km/h 11.3 km/h 90% 0 mm 0 W/m2
04:30 16 °C 14.6 °C 1022.6 hPa North 3.2 km/h 9.7 km/h 91% 0 mm 0 W/m2
04:40 16 °C 14.2 °C 1022.2 hPa North 1.6 km/h 12.9 km/h 89% 0 mm 0 W/m2
04:50 16 °C 14.2 °C 1022.2 hPa Calm   9.7 km/h 89% 0 mm 0 W/m2
05:00 16 °C 14 °C 1022.2 hPa NNW 3.2 km/h 8 km/h 88% 0 mm 1 W/m2
05:10 15.9 °C 14.1 °C 1022.6 hPa NW 1.6 km/h 8 km/h 89% 0 mm 4 W/m2
05:20 15.9 °C 14.1 °C 1022.6 hPa Calm   3.2 km/h 89% 0 mm 11 W/m2
05:30 15.9 °C 14.1 °C 1022.6 hPa NW 1.6 km/h 3.2 km/h 89% 0 mm 18 W/m2
05:40 15.9 °C 14.1 °C 1022.6 hPa Calm   3.2 km/h 89% 0 mm 20 W/m2
05:50 15.9 °C 14.1 °C 1022.6 hPa Calm   3.2 km/h 89% 0 mm 18 W/m2
Knjazevac, Serbia
Compliments of Weather Underground - 2 mb